• Join FlightAware (Why Join?)
  • Login
  • US Flag 
02:21AM EST


 

Airport Tracker/Info


-or-


 

Live Flight TrackerFlight Track Log ✈ N779JM ✈ 03-Jul-2013 ✈ KPTK

Flight Track Log - Related Links

Times and Time Zones

All times are in EDT time to prevent confusion due to time zone crossing. See the N779JM flight status page for this flight to view local times or setup timezone preferences in your user account.

Time Position Orientation Groundspeed Altitude Reporting Facility
EDT Latitude Longitude Course Direction KTS MPH feet Rate Location/Type
03:13PM 42.4886 -75.1628 289° West 255 293 5,000  Level Boston Center
03:14PM 42.4792 -75.2047 253° West 187 215 6,500 1,500 Climbing Boston Center
03:15PM 42.5721 -75.4883 289° West  Level FlightAware Approximate
03:15PM 42.4697 -75.2550 256° West 166 191 8,100  Level Boston Center
03:16PM 42.4789 -75.3061 284° West 151 174 9,700 1,500 Climbing Boston Center
03:17PM 42.4881 -75.3572 284° West 139 160 11,200 1,320 Climbing Boston Center
03:18PM 42.4950 -75.4111 280° West 144 166 12,400 1,260 Climbing Boston Center
03:19PM 42.5039 -75.4650 283° West 144 166 13,800 1,380 Climbing Boston Center
03:20PM 42.5089 -75.5158 278° West 144 166 15,200 1,200 Climbing Boston Center
03:21PM 42.5178 -75.5697 283° West 144 166 16,300 1,080 Climbing Boston Center
03:22PM 42.5225 -75.6236 277° West 144 166 17,400 900 Climbing Boston Center
03:23PM 42.5314 -75.6775 283° West 144 166 18,200 900 Climbing Boston Center
03:24PM 42.5467 -75.7292 292° West 144 166 19,300 960 Climbing Boston Center
03:25PM 42.5639 -75.7808 294° West 149 171 20,200 960 Climbing Boston Center
03:26PM 42.5856 -75.8272 302° West 154 177 21,300 900 Climbing Boston Center
03:27PM 42.6047 -75.8761 298° West 148 170 22,000 660 Climbing Boston Center
03:28PM 42.6283 -75.9256 303° West 153 176 22,700 720 Climbing Boston Center
03:29PM 42.6497 -75.9775 299° West 158 182 23,500 720 Climbing Boston Center
03:30PM 42.6750 -76.0325 302° West 163 188 24,200 660 Climbing Boston Center
03:31PM 42.6942 -76.0847 297° West 163 188 24,900 540 Climbing Boston Center
03:33PM 42.7019 -76.1978 275° West 144 166 26,000 300 Climbing Cleveland Center
03:34PM 42.7044 -76.2597 273° West 150 173 26,000  Level Cleveland Center
03:35PM 42.7050 -76.3333 271° West 173 199 26,000  Level Cleveland Center
03:36PM 42.7183 -76.4086 284° West 191 220 26,000  Level Cleveland Center
03:37PM 42.7272 -76.4872 279° West 207 238 26,000  Level Cleveland Center
03:38PM 42.7342 -76.5661 277° West 217 250 26,000  Level Cleveland Center
03:39PM 42.7453 -76.6472 281° West 217 250 26,000  Level Cleveland Center
03:40PM 42.7567 -76.7372 280° West 217 250 26,000  Level Cleveland Center
03:41PM 42.7425 -76.8117 255° West 211 243 26,000  Level Cleveland Center
03:42PM 42.7281 -76.8831 255° West 206 237 26,000  Level Cleveland Center
03:43PM 42.7117 -76.9575 253° West 206 237 26,000  Level Cleveland Center
03:44PM 42.6975 -77.0319 256° West 206 237 26,000  Level Cleveland Center
03:45PM 42.6831 -77.1061 255° West 211 243 26,000  Level Cleveland Center
03:46PM 42.6706 -77.1831 258° West 206 237 26,000  Level Cleveland Center
03:47PM 42.6686 -77.2594 268° West 206 237 26,000  Level Cleveland Center
03:48PM 42.6669 -77.3386 268° West 206 237 26,000  Level Cleveland Center
03:49PM 42.6647 -77.4150 268° West 206 237 26,000  Level Cleveland Center
03:50PM 42.6625 -77.4858 268° West 206 237 26,000  Level Cleveland Center
03:51PM 42.6625 -77.5619 270° West 206 237 26,000  Level Cleveland Center
03:52PM 42.6561 -77.6386 264° West 206 237 26,000  Level Cleveland Center
03:53PM 42.6581 -77.7175 272° West 212 244 26,000  Level Cleveland Center
03:54PM 42.6558 -77.7967 268° West 212 244 26,000  Level Cleveland Center
03:55PM 42.6681 -77.8722 282° West 212 244 26,000  Level Cleveland Center
03:56PM 42.6803 -77.9481 282° West 217 250 26,000  Level Cleveland Center
03:57PM 42.6944 -78.0267 284° West 217 250 26,000  Level Cleveland Center
03:59PM 42.7256 -78.1122 296° West  Level FlightAware Approximate
04:00PM 42.7242 -78.2514 279° West 212 244 26,000  Level Cleveland Center
04:01PM 42.7153 -78.3253 261° West 207 238 26,000  Level Cleveland Center
04:02PM 42.7064 -78.3992 261° West 207 238 26,000  Level Cleveland Center
04:03PM 42.6994 -78.4700 262° West 196 226 26,000  Level Cleveland Center
04:04PM 42.6922 -78.5408 262° West 196 226 26,000  Level Cleveland Center
04:05PM 42.6853 -78.6117 262° West 196 226 26,000  Level Cleveland Center
04:06PM 42.7916 -78.6290 279° West  Level FlightAware Approximate
04:06PM 42.6781 -78.6825 262° West 196 226 26,000  Level Cleveland Center
04:07PM 42.6728 -78.7533 264° West 196 226 26,000  Level Cleveland Center
04:08PM 42.6656 -78.8242 262° West 196 226 26,000  Level Cleveland Center
04:09PM 42.6583 -78.8978 262° West 196 226 26,000  Level Cleveland Center
04:10PM 42.6511 -78.9683 262° West 196 226 26,000  Level Cleveland Center
04:11PM 42.6458 -79.0392 264° West 196 226 26,000  Level Cleveland Center
04:12PM 42.6406 -79.1100 264° West 196 226 26,000  Level Cleveland Center
04:13PM 42.6539 -79.1886 283° West 196 226 26,000  Level Cleveland Center
04:14PM 42.6675 -79.2644 284° West 202 232 26,000  Level Cleveland Center
04:15PM 42.6808 -79.3433 283° West 207 238 26,000  Level Cleveland Center
04:16PM 42.6942 -79.4194 283° West 212 244 26,000  Level Cleveland Center
04:17PM 42.7094 -79.4953 285° West 212 244 26,000  Level Cleveland Center
04:18PM 42.7247 -79.5742 285° West 212 244 26,000  Level Cleveland Center
04:19PM 42.7378 -79.6475 284° West 217 250 26,000  Level Cleveland Center
04:20PM 42.7550 -79.7236 287° West 217 250 26,000  Level Cleveland Center
04:21PM 42.7681 -79.7997 283° West 217 250 26,000  Level Cleveland Center
04:22PM 42.7831 -79.8761 285° West 212 244 26,000  Level Cleveland Center
04:23PM 42.7961 -79.9522 283° West 212 244 26,000  Level Cleveland Center
04:24PM 42.8111 -80.0342 284° West 224 258 26,000  Level Cleveland Center
04:25PM 42.8261 -80.1106 285° West 219 252 26,000  Level Cleveland Center
04:26PM 42.8431 -80.1869 287° West 219 252 26,000 -360 Level Cleveland Center
04:28PM 42.8667 -80.3333 282° West 220 253 25,000 -600 Descending Toronto Center
04:29PM 42.8667 -80.4333 270° West 240 276 24,100 -960 Descending Toronto Center
04:30PM 42.8667 -80.5167 270° West 240 276 23,100 -1,080 Descending Toronto Center
04:31PM 42.8500 -80.6333 259° West 250 288 22,000 -1,080 Descending Toronto Center
04:32PM 42.8500 -80.7167 270° West 250 288 21,000 -1,020 Descending Toronto Center
04:33PM 42.8333 -80.8167 257° West 240 276 20,000 -1,080 Descending Toronto Center
04:34PM 42.8333 -80.9000 270° West 230 265 18,900 -1,020 Descending Toronto Center
04:35PM 42.8333 -80.9667 270° West 230 265 18,000 -480 Descending Toronto Center
04:36PM 42.8333 -81.0667 270° West 220 253 18,000  Level Toronto Center
04:37PM 42.8500 -81.1500 285° West 220 253 18,000  Level Toronto Center
04:38PM 42.8500 -81.2500 270° West 230 265 18,000 -120 Level Toronto Center
04:39PM 42.8500 -81.3167 270° West 230 265 17,800 -780 Descending Toronto Center
04:40PM 42.8500 -81.4333 270° West 240 276 16,500 -1,200 Descending Toronto Center
04:41PM 42.8500 -81.5167 270° West 240 276 15,500 -960 Descending Toronto Center
04:42PM 42.8500 -81.6167 270° West 240 276 14,600 -960 Descending Toronto Center
04:43PM 42.8500 -81.6833 270° West 230 265 13,600 -1,140 Descending Toronto Center
04:44PM 42.8500 -81.8000 270° West 240 276 12,400 -780 Descending Toronto Center
04:45PM 42.8500 -81.8667 270° West 230 265 12,100 -180 Descending Toronto Center
04:46PM 42.8333 -81.9500 255° West 230 265 12,100  Level Toronto Center
04:47PM 42.8167 -82.0500 257° West 220 253 12,100 -540 Level Toronto Center
04:48PM 42.8000 -82.1167 251° West 220 253 11,100 -1,200 Descending Toronto Center
04:49PM 42.7833 -82.2000 255° West 230 265 9,800 -960 Descending Toronto Center
04:50PM 42.7667 -82.2667 251° West 220 253 9,200 -780 Descending Toronto Center
04:51PM 42.7667 -82.3500 270° West 230 265 8,300 -840 Descending Toronto Center
04:52PM 42.7667 -82.4500 270° West 230 265 7,600 -780 Descending Toronto Center
04:53PM 42.7667 -82.5333 270° West 220 253 6,800 -660 Descending Toronto Center
04:54PM 42.7667 -82.6000 270° West 200 230 6,300 -420 Descending Toronto Center
04:55PM 42.7500 -82.6833 255° West 190 219 6,000 -120 Descending Toronto Center
04:56PM 42.7333 -82.7500 251° West 180 207 6,100  Climbing Toronto Center
04:57PM 42.7333 -82.8167 270° West 190 219 6,100  Level Toronto Center
04:58PM 42.7356 -82.8672 273° West 187 215 6,100 -180 Level Cleveland Center
04:59PM 42.7258 -82.9347 259° West 179 206 5,900 -960 Descending Cleveland Center
05:00PM 42.7181 -83.0078 262° West 185 213 4,200 -960 Descending Cleveland Center
05:01PM 42.7083 -83.0697 258° West 195 224 4,100 -360 Descending Cleveland Center
05:02PM 42.6964 -83.1397 257° West 188 216 3,600 -600 Descending Cleveland Center
05:03PM 42.6822 -83.2128 255° West 193 222 2,900 -660 Descending Cleveland Center
05:04PM 42.6683 -83.2828 255° West 181 208 2,300 -480 Descending Cleveland Center
05:05PM 42.6672 -83.3308 268° West 132 152 2,000 -420 Descending Cleveland Center
05:06PM 42.6639 -83.3758 264° West 99 114 1,500 -540 Descending Cleveland Center
05:08PM 42.6500 -83.4167 246° West  Level FlightAware Approximate
05:15PM 42.6656 -83.4205 246° West  Level Estimated
05:16PM 42.6656 -83.4205 246° West  Level Estimated